Portada
METAR-TAF:

METAR-TAF

Aeropuertos :

Bagdad, Iraq

Aeropuerto Internacional de Bagdad

latitud: 33-15-45N, longitud: 44-14-04E, altitud: 35 m

Observación

El informe se hizo hace 32 minutos, a las 09:00 UTC
Viento 8 kt del oeste, variando entre suroeste y noroeste
Temperatura 24°C
Humedad 38%
Presión 1011 hPa
Visibilidad 10 km o más
Escasas nubes a una altura de 3000 ft

METAR: ORBI 230900Z 27008KT 230V320 9999 R33R/0500N FEW030 24/09 Q1011 NOSIG

Hora: 12:32 (09:32 UTC)

Pronóstico

El informe se hizo hace 5 horas y 32 minutos, a las 04:00 UTC
Pronóstico válido del 23 a las 06 UTC al 24 a las 06 UTC
Viento 8 kt del noroeste
Visibilidad: 7000 m

TAF: ORBI 230400Z 2306/2406 32008KT 7000 NSC

Observaciones y pronósticos meteorológicos de más de 4000 aeropuertos (mensajes METAR y TAF).

Los puntos amarillos y rojos representan las estaciones disponibles.

Ponga el ratón en el punto deseado para ver el nombre de la estación.

Haga clic para ver las observaciones y los pronósticos meteorológicos.

Para cambiar el mapa : haga clic en los botones verdes con una cruz de color negro para hacer un zoom, en el botón verde con un guión para alejar o en las flechas verdes para mapas adyacentes.


METAR-TAF: